createdAt,value
2018-12-15T00:00:34.844Z,32.17
2018-12-15T00:03:03.634Z,31.85
2018-12-15T00:05:32.789Z,32.23
2018-12-15T00:08:01.394Z,31.25
2018-12-15T00:10:29.955Z,33.35
2018-12-15T00:12:58.672Z,33.25
2018-12-15T00:15:27.275Z,34.20
2018-12-15T00:17:55.924Z,34.27
2018-12-15T00:20:25.462Z,31.90
2018-12-15T00:22:53.981Z,30.10
2018-12-15T00:25:22.603Z,30.30
2018-12-15T00:27:51.210Z,29.42
2018-12-15T00:30:19.795Z,31.60
2018-12-15T00:32:48.372Z,29.77
2018-12-15T00:35:17.095Z,29.40
2018-12-15T00:37:45.612Z,31.52
2018-12-15T00:40:14.255Z,32.50
2018-12-15T00:42:43.373Z,30.80
2018-12-15T00:45:11.910Z,29.72
2018-12-15T00:47:40.407Z,29.45
2018-12-15T00:50:08.942Z,31.95
2018-12-15T00:52:37.445Z,31.52
2018-12-15T00:55:06.136Z,32.05
2018-12-15T00:57:35.215Z,32.28
2018-12-15T01:00:04.443Z,32.20
2018-12-15T01:02:33.035Z,31.07
2018-12-15T01:05:01.601Z,34.25
2018-12-15T01:07:30.173Z,31.27
2018-12-15T01:09:58.689Z,31.25
2018-12-15T01:12:27.269Z,30.13
2018-12-15T01:14:55.815Z,30.60
2018-12-15T01:17:24.334Z,28.90
2018-12-15T01:19:52.830Z,32.28
2018-12-15T01:22:21.378Z,31.45
2018-12-15T01:24:50.087Z,31.20
2018-12-15T01:27:18.599Z,30.12
2018-12-15T01:29:47.106Z,29.45
2018-12-15T01:32:15.696Z,29.52
2018-12-15T01:34:44.296Z,28.50
2018-12-15T01:37:12.821Z,29.07
2018-12-15T01:39:41.420Z,29.18
2018-12-15T01:42:09.982Z,28.92
2018-12-15T01:44:38.772Z,29.57
2018-12-15T01:47:07.346Z,29.25
2018-12-15T01:49:35.886Z,30.70
2018-12-15T01:52:04.512Z,29.67
2018-12-15T01:54:33.052Z,31.35
2018-12-15T01:57:01.541Z,30.70
2018-12-15T01:59:30.619Z,28.37
2018-12-15T02:01:59.345Z,29.52
2018-12-15T02:04:28.147Z,30.62
2018-12-15T02:06:56.727Z,30.68
2018-12-15T02:09:25.440Z,30.90
2018-12-15T02:11:53.988Z,29.05
2018-12-15T02:14:22.522Z,28.75
2018-12-15T02:16:51.043Z,28.25
2018-12-15T02:19:19.596Z,30.02
2018-12-15T02:21:48.090Z,29.27
2018-12-15T02:24:16.659Z,28.10
2018-12-15T02:26:45.205Z,27.93
2018-12-15T02:29:16.349Z,28.90
2018-12-15T02:31:45.368Z,27.93
2018-12-15T02:34:13.921Z,27.85
2018-12-15T02:36:42.455Z,26.13
2018-12-15T02:39:11.066Z,26.97
2018-12-15T02:41:46.956Z,27.58
2018-12-15T02:44:10.139Z,25.88
2018-12-15T02:46:38.637Z,26.15
2018-12-15T02:49:07.205Z,24.83
2018-12-15T02:51:35.781Z,27.10
2018-12-15T02:54:04.528Z,25.45
2018-12-15T02:56:33.018Z,24.32
2018-12-15T02:59:01.538Z,26.20
2018-12-15T03:01:30.119Z,27.15
2018-12-15T03:03:58.671Z,26.23
2018-12-15T03:06:27.187Z,25.32
2018-12-15T03:08:55.723Z,26.97
2018-12-15T03:11:24.346Z,24.18
2018-12-15T03:13:52.911Z,24.25
2018-12-15T03:16:21.387Z,24.23
2018-12-15T03:18:49.934Z,24.92
2018-12-15T03:21:18.561Z,25.00
2018-12-15T03:23:47.132Z,26.50
2018-12-15T03:26:15.713Z,27.00
2018-12-15T03:28:44.199Z,27.37
2018-12-15T03:31:12.774Z,27.50
2018-12-15T03:33:41.271Z,27.02
2018-12-15T03:36:09.787Z,25.45
2018-12-15T03:38:38.294Z,24.87
2018-12-15T03:41:07.377Z,25.20
2018-12-15T03:43:35.893Z,25.90
2018-12-15T03:46:04.402Z,29.93
2018-12-15T03:48:32.930Z,38.95
2018-12-15T03:51:01.471Z,34.05
2018-12-15T03:53:30.017Z,42.80
2018-12-15T03:55:58.527Z,38.93
2018-12-15T03:58:27.055Z,40.75
2018-12-15T04:00:55.645Z,42.20
2018-12-15T04:03:24.293Z,44.38
2018-12-15T04:05:52.930Z,38.80
2018-12-15T04:08:21.642Z,55.43
2018-12-15T04:10:50.180Z,62.50
2018-12-15T04:13:18.747Z,62.65
2018-12-15T04:15:47.296Z,48.02
2018-12-15T04:18:15.939Z,39.80
2018-12-15T04:20:44.467Z,37.50
2018-12-15T04:23:13.014Z,33.07
2018-12-15T04:25:41.512Z,32.35
2018-12-15T04:28:10.057Z,27.32
2018-12-15T04:30:38.565Z,27.58
2018-12-15T04:33:07.074Z,27.13
2018-12-15T04:35:35.613Z,27.00
2018-12-15T04:38:04.119Z,27.87
2018-12-15T04:40:32.923Z,29.12
2018-12-15T04:43:01.546Z,26.65
2018-12-15T04:45:30.379Z,26.82
2018-12-15T04:47:59.282Z,25.72
2018-12-15T04:50:27.805Z,25.50
2018-12-15T04:52:56.353Z,26.70
2018-12-15T04:55:24.943Z,26.30
2018-12-15T04:57:53.563Z,24.67
2018-12-15T05:00:22.101Z,25.23
2018-12-15T05:02:50.633Z,24.55
2018-12-15T05:05:19.385Z,24.63
2018-12-15T05:07:47.949Z,24.52
2018-12-15T05:10:16.509Z,25.30
2018-12-15T05:12:45.095Z,23.92
2018-12-15T05:15:16.547Z,25.62
2018-12-15T05:17:45.087Z,24.10
2018-12-15T05:20:14.687Z,24.15
2018-12-15T05:22:43.264Z,25.15
2018-12-15T05:25:12.075Z,24.85
2018-12-15T05:27:40.691Z,26.42
2018-12-15T05:30:09.362Z,44.75
2018-12-15T05:32:37.883Z,49.83
2018-12-15T05:35:06.432Z,49.70
2018-12-15T05:37:34.987Z,26.20
2018-12-15T05:40:03.533Z,25.10
2018-12-15T05:42:32.071Z,31.60
2018-12-15T05:45:00.599Z,28.38
2018-12-15T05:47:29.116Z,28.55
2018-12-15T05:49:57.761Z,33.83
2018-12-15T05:52:26.286Z,34.13
2018-12-15T05:54:54.824Z,25.23
2018-12-15T05:57:23.336Z,28.45
2018-12-15T05:59:51.904Z,30.62
2018-12-15T06:02:21.301Z,30.60
2018-12-15T06:04:49.843Z,32.75
2018-12-15T06:07:18.396Z,28.57
2018-12-15T06:09:47.023Z,25.65
2018-12-15T06:12:15.540Z,24.57
2018-12-15T06:14:44.076Z,26.50
2018-12-15T06:17:12.720Z,27.67
2018-12-15T06:19:41.284Z,31.62
2018-12-15T06:22:09.812Z,30.08
2018-12-15T06:24:38.335Z,28.60
2018-12-15T06:27:06.883Z,32.23
2018-12-15T06:29:35.387Z,27.15
2018-12-15T06:32:03.957Z,26.15
2018-12-15T06:34:32.448Z,24.67
2018-12-15T06:37:01.543Z,25.40
2018-12-15T06:39:30.063Z,27.45
2018-12-15T06:41:58.620Z,25.00
2018-12-15T06:44:28.212Z,23.00
2018-12-15T06:46:56.714Z,24.10
2018-12-15T06:49:26.176Z,25.62
2018-12-15T06:51:54.745Z,25.50
2018-12-15T06:54:23.299Z,25.13
2018-12-15T06:56:51.848Z,26.65
2018-12-15T06:59:20.333Z,25.12
2018-12-15T07:01:48.845Z,25.48
2018-12-15T07:04:17.426Z,30.02
2018-12-15T07:06:45.971Z,26.77
2018-12-15T07:09:14.591Z,35.92
2018-12-15T07:11:43.136Z,32.65
2018-12-15T07:14:11.898Z,39.85
2018-12-15T07:16:40.557Z,36.28
2018-12-15T07:19:09.090Z,31.55
2018-12-15T07:21:38.059Z,26.00
2018-12-15T07:24:06.662Z,28.80
2018-12-15T07:26:35.257Z,30.08
2018-12-15T07:29:03.941Z,33.13
2018-12-15T07:31:32.480Z,31.48
2018-12-15T07:34:01.689Z,26.12
2018-12-15T07:36:31.222Z,28.17
2018-12-15T07:38:59.756Z,29.70
2018-12-15T07:41:28.238Z,35.50
2018-12-15T07:43:56.868Z,34.83
2018-12-15T07:46:25.526Z,30.68
2018-12-15T07:48:54.082Z,25.88
2018-12-15T07:51:23.788Z,26.60
2018-12-15T07:53:52.384Z,25.00
2018-12-15T07:56:23.532Z,24.23
2018-12-15T07:58:52.084Z,24.63
2018-12-15T08:01:20.716Z,25.30
2018-12-15T08:03:49.282Z,26.05
2018-12-15T08:06:17.870Z,25.50
2018-12-15T08:08:46.455Z,24.98
2018-12-15T08:11:20.430Z,25.52
2018-12-15T08:13:51.199Z,27.65
2018-12-15T08:16:19.773Z,24.15
2018-12-15T08:18:48.315Z,23.35
2018-12-15T08:21:16.935Z,22.37
2018-12-15T08:23:45.473Z,22.73
2018-12-15T08:26:14.016Z,21.82
2018-12-15T08:28:42.561Z,21.02
2018-12-15T08:31:11.166Z,23.00
2018-12-15T08:33:39.764Z,20.63
2018-12-15T08:36:08.422Z,22.07
2018-12-15T08:38:36.921Z,25.75
2018-12-15T08:41:05.501Z,23.15
2018-12-15T08:43:34.075Z,23.07
2018-12-15T08:46:04.457Z,29.70
2018-12-15T08:48:33.077Z,25.68
2018-12-15T08:51:02.174Z,25.40
2018-12-15T08:53:31.293Z,22.90
2018-12-15T08:55:59.850Z,21.33
2018-12-15T08:58:28.591Z,23.10
2018-12-15T09:00:57.149Z,18.92
2018-12-15T09:03:25.657Z,19.80
2018-12-15T09:05:54.205Z,18.10
2018-12-15T09:08:22.787Z,23.35
2018-12-15T09:10:51.311Z,22.27
2018-12-15T09:13:19.901Z,21.23
2018-12-15T09:15:48.390Z,24.73
2018-12-15T09:18:17.009Z,26.02
2018-12-15T09:20:45.599Z,19.65
2018-12-15T09:23:14.647Z,20.25
2018-12-15T09:25:43.248Z,18.70
2018-12-15T09:28:12.797Z,22.07
2018-12-15T09:30:41.345Z,19.70
2018-12-15T09:33:09.855Z,20.15
2018-12-15T09:35:38.393Z,22.42
2018-12-15T09:38:06.961Z,18.98
2018-12-15T09:40:35.565Z,20.77
2018-12-15T09:43:05.958Z,21.93
2018-12-15T09:45:34.669Z,21.40
2018-12-15T09:48:03.228Z,19.23
2018-12-15T09:50:31.769Z,20.23
2018-12-15T09:53:00.312Z,19.30
2018-12-15T09:55:28.866Z,20.90
2018-12-15T09:57:57.546Z,22.32
2018-12-15T10:00:26.129Z,19.73
2018-12-15T10:02:54.800Z,22.62
2018-12-15T10:05:23.799Z,24.63
2018-12-15T10:07:52.564Z,22.57
2018-12-15T10:10:21.098Z,21.00
2018-12-15T10:12:49.612Z,20.80
2018-12-15T10:15:18.275Z,23.83
2018-12-15T10:17:46.883Z,21.15
2018-12-15T10:20:15.410Z,20.27
2018-12-15T10:22:43.926Z,20.27
2018-12-15T10:25:12.457Z,18.23
2018-12-15T10:27:41.000Z,15.55
2018-12-15T10:30:15.168Z,17.50
2018-12-15T10:32:49.307Z,16.45
2018-12-15T10:35:17.889Z,17.03
2018-12-15T10:37:46.417Z,18.07
2018-12-15T10:40:15.077Z,17.42
2018-12-15T10:42:43.607Z,18.15
2018-12-15T10:45:12.243Z,17.05
2018-12-15T10:47:40.771Z,18.23
2018-12-15T10:50:10.643Z,15.88
2018-12-15T10:52:39.299Z,16.42
2018-12-15T10:55:09.177Z,14.40
2018-12-15T10:57:37.827Z,15.30
2018-12-15T11:00:13.356Z,15.15
2018-12-15T11:02:42.016Z,16.52
2018-12-15T11:05:10.555Z,16.35
2018-12-15T11:07:39.212Z,15.45
2018-12-15T11:10:07.903Z,15.80
2018-12-15T11:12:36.425Z,13.90
2018-12-15T11:15:06.307Z,18.02
2018-12-15T11:17:34.895Z,17.80
2018-12-15T11:20:04.175Z,16.50
2018-12-15T11:22:34.062Z,23.45
2018-12-15T11:25:02.936Z,16.05
2018-12-15T11:27:31.902Z,15.85
2018-12-15T11:30:00.520Z,16.75
2018-12-15T11:32:29.107Z,15.13
2018-12-15T11:34:57.805Z,14.25
2018-12-15T11:37:26.379Z,16.97
2018-12-15T11:39:55.230Z,16.42
2018-12-15T11:42:24.334Z,20.40
2018-12-15T11:44:52.933Z,22.02
2018-12-15T11:47:21.495Z,17.82
2018-12-15T11:49:50.081Z,16.37
2018-12-15T11:52:18.601Z,14.38
2018-12-15T11:54:47.166Z,16.07
2018-12-15T11:57:15.758Z,16.93
2018-12-15T11:59:44.742Z,19.17
2018-12-15T12:02:13.364Z,20.43
2018-12-15T12:04:41.983Z,22.67
2018-12-15T12:07:10.506Z,22.13
2018-12-15T12:09:39.147Z,22.67
2018-12-15T12:12:07.809Z,20.77
2018-12-15T12:14:36.328Z,20.50
2018-12-15T12:17:05.037Z,26.20
2018-12-15T12:19:33.583Z,22.15
2018-12-15T12:22:02.307Z,23.03
2018-12-15T12:24:31.568Z,21.53
2018-12-15T12:27:00.182Z,21.97
2018-12-15T12:29:28.706Z,24.12
2018-12-15T12:31:57.285Z,23.87
2018-12-15T12:34:25.873Z,30.88
2018-12-15T12:36:54.491Z,18.02
2018-12-15T12:39:23.501Z,17.62
2018-12-15T12:41:52.067Z,19.57
2018-12-15T12:44:20.549Z,25.77
2018-12-15T12:46:49.120Z,22.95
2018-12-15T12:49:17.635Z,21.87
2018-12-15T12:51:46.157Z,23.18
2018-12-15T12:54:14.671Z,20.62
2018-12-15T12:56:43.366Z,17.10
2018-12-15T12:59:11.947Z,15.93
2018-12-15T13:01:40.549Z,16.50
2018-12-15T13:04:09.187Z,17.70
2018-12-15T13:06:38.304Z,17.05
2018-12-15T13:09:07.596Z,22.85
2018-12-15T13:11:36.089Z,19.52
2018-12-15T13:14:04.801Z,16.20
2018-12-15T13:16:33.713Z,20.50
2018-12-15T13:19:03.311Z,22.20
2018-12-15T13:21:31.863Z,24.35
2018-12-15T13:24:00.471Z,21.52
2018-12-15T13:26:29.041Z,17.98
2018-12-15T13:28:57.553Z,15.97
2018-12-15T13:31:26.188Z,17.85
2018-12-15T13:33:54.795Z,19.42
2018-12-15T13:36:23.529Z,18.95
2018-12-15T13:38:52.092Z,18.95
2018-12-15T13:41:21.141Z,18.90
2018-12-15T13:43:49.674Z,18.55
2018-12-15T13:46:18.338Z,22.52
2018-12-15T13:48:47.457Z,25.97
2018-12-15T13:51:16.318Z,123.58
2018-12-15T13:53:44.908Z,27.98
2018-12-15T13:56:13.642Z,51.33
2018-12-15T13:58:42.229Z,143.47
2018-12-15T14:01:10.926Z,85.53
2018-12-15T14:03:39.595Z,55.25
2018-12-15T14:06:08.201Z,26.60
2018-12-15T14:08:36.868Z,25.23
2018-12-15T14:11:05.565Z,25.60
2018-12-15T14:13:34.254Z,25.20
2018-12-15T14:16:02.948Z,23.22
2018-12-15T14:18:32.096Z,22.77
2018-12-15T14:21:01.403Z,47.90
2018-12-15T14:23:31.356Z,86.32
2018-12-15T14:26:02.317Z,43.48
2018-12-15T14:28:30.990Z,50.25
2018-12-15T14:30:59.714Z,27.80
2018-12-15T14:33:28.378Z,27.40
2018-12-15T14:35:56.965Z,28.57
2018-12-15T14:38:25.510Z,25.20
2018-12-15T14:40:54.125Z,23.95
2018-12-15T14:43:22.645Z,24.10
2018-12-15T14:45:51.224Z,28.25
2018-12-15T14:48:19.766Z,29.50
2018-12-15T14:50:48.410Z,28.87
2018-12-15T14:53:16.989Z,29.32
2018-12-15T14:55:45.844Z,35.55
2018-12-15T14:58:14.438Z,34.58
2018-12-15T15:00:42.986Z,34.05
2018-12-15T15:03:11.484Z,35.45
2018-12-15T15:05:40.190Z,43.45
2018-12-15T15:08:08.837Z,53.92
2018-12-15T15:10:37.583Z,50.55
2018-12-15T15:13:06.125Z,36.48
2018-12-15T15:15:34.752Z,47.58
2018-12-15T15:18:03.337Z,50.60
2018-12-15T15:20:32.383Z,42.70
2018-12-15T15:23:00.964Z,31.10
2018-12-15T15:25:29.469Z,37.20
2018-12-15T15:27:58.095Z,36.03
2018-12-15T15:30:26.620Z,36.65
2018-12-15T15:32:55.773Z,51.35
2018-12-15T15:35:24.398Z,66.35
2018-12-15T15:37:53.100Z,58.85
2018-12-15T15:40:21.764Z,54.18
2018-12-15T15:42:50.370Z,30.20
2018-12-15T15:45:18.900Z,21.27
2018-12-15T15:47:47.456Z,19.20
2018-12-15T15:50:16.203Z,21.95
2018-12-15T15:52:45.022Z,19.95
2018-12-15T15:55:13.551Z,20.72
2018-12-15T15:57:42.176Z,19.05
2018-12-15T16:00:11.574Z,23.18
2018-12-15T16:02:40.283Z,27.32
2018-12-15T16:05:08.954Z,42.33
2018-12-15T16:07:37.726Z,41.48
2018-12-15T16:10:09.323Z,23.73
2018-12-15T16:12:37.799Z,48.58
2018-12-15T16:15:08.486Z,58.92
2018-12-15T16:17:37.043Z,47.48
2018-12-15T16:20:07.938Z,28.12
2018-12-15T16:22:36.509Z,31.60
2018-12-15T16:25:05.578Z,31.60
2018-12-15T16:27:34.659Z,34.88
2018-12-15T16:30:04.083Z,42.48
2018-12-15T16:32:32.667Z,46.15
2018-12-15T16:35:01.247Z,40.73
2018-12-15T16:37:29.821Z,43.98
2018-12-15T16:39:58.363Z,44.20
2018-12-15T16:42:27.533Z,39.05
2018-12-15T16:44:56.547Z,39.05
2018-12-15T16:47:25.329Z,45.33
2018-12-15T16:49:53.822Z,35.50
2018-12-15T16:52:22.633Z,32.53
2018-12-15T16:54:51.922Z,31.20
2018-12-15T16:57:20.699Z,35.35
2018-12-15T16:59:50.355Z,36.75
2018-12-15T17:02:18.867Z,47.98
2018-12-15T17:04:47.484Z,55.23
2018-12-15T17:07:16.598Z,48.00
2018-12-15T17:09:45.520Z,82.53
2018-12-15T17:12:14.692Z,106.70
2018-12-15T17:14:44.249Z,88.20
2018-12-15T17:17:12.913Z,94.93
2018-12-15T17:19:42.590Z,102.50
2018-12-15T17:22:11.141Z,95.77
2018-12-15T17:24:39.750Z,92.80
2018-12-15T17:27:08.274Z,53.65
2018-12-15T17:29:36.802Z,73.50
2018-12-15T17:32:05.406Z,44.45
2018-12-15T17:34:33.982Z,58.63
2018-12-15T17:37:02.620Z,64.37
2018-12-15T17:39:31.953Z,83.20
2018-12-15T17:42:00.455Z,108.70
2018-12-15T17:44:29.026Z,101.65
2018-12-15T17:46:57.575Z,72.00
2018-12-15T17:49:26.185Z,89.97
2018-12-15T17:51:54.824Z,67.03
2018-12-15T17:54:23.385Z,74.32
2018-12-15T17:56:52.146Z,32.90
2018-12-15T17:59:20.672Z,36.38
2018-12-15T18:01:49.412Z,48.85
2018-12-15T18:04:18.166Z,33.38
2018-12-15T18:06:47.490Z,32.88
2018-12-15T18:09:23.366Z,29.23
2018-12-15T18:11:51.923Z,43.98
2018-12-15T18:14:20.510Z,38.80
2018-12-15T18:16:49.108Z,45.15
2018-12-15T18:19:18.244Z,48.80
2018-12-15T18:21:46.831Z,46.08
2018-12-15T18:24:15.436Z,48.20
2018-12-15T18:26:44.561Z,56.23
2018-12-15T18:29:13.148Z,51.90
2018-12-15T18:31:41.785Z,57.53
2018-12-15T18:34:10.392Z,48.35
2018-12-15T18:36:39.221Z,57.95
2018-12-15T18:39:08.306Z,61.80
2018-12-15T18:41:36.839Z,50.60
2018-12-15T18:44:05.972Z,30.77
2018-12-15T18:46:34.606Z,28.77
2018-12-15T18:49:03.298Z,28.90
2018-12-15T18:51:31.900Z,25.92
2018-12-15T18:54:00.440Z,30.37
2018-12-15T18:56:29.506Z,25.60
2018-12-15T18:58:58.476Z,25.10
2018-12-15T19:01:27.383Z,22.23
2018-12-15T19:03:56.053Z,30.48
2018-12-15T19:06:24.647Z,43.85
2018-12-15T19:08:53.355Z,44.20
2018-12-15T19:11:22.027Z,42.93
2018-12-15T19:13:50.665Z,25.87
2018-12-15T19:16:19.253Z,29.57
2018-12-15T19:18:47.911Z,24.12
2018-12-15T19:21:22.762Z,31.40
2018-12-15T19:23:47.123Z,28.80
2018-12-15T19:26:15.849Z,24.92
2018-12-15T19:28:44.514Z,21.95
2018-12-15T19:31:13.065Z,25.43
2018-12-15T19:33:41.758Z,28.23
2018-12-15T19:36:10.399Z,30.68
2018-12-15T19:38:39.335Z,22.93
2018-12-15T19:41:08.095Z,25.45
2018-12-15T19:43:36.736Z,28.85
2018-12-15T19:46:05.445Z,33.78
2018-12-15T19:48:34.094Z,42.67
2018-12-15T19:51:02.700Z,27.02
2018-12-15T19:53:31.398Z,24.73
2018-12-15T19:56:00.170Z,36.30
2018-12-15T19:58:28.781Z,30.40
2018-12-15T20:00:57.347Z,29.50
2018-12-15T20:03:25.983Z,20.37
2018-12-15T20:05:54.681Z,26.05
2018-12-15T20:08:23.267Z,28.67
2018-12-15T20:10:51.927Z,37.90
2018-12-15T20:13:20.488Z,17.55
2018-12-15T20:15:49.133Z,28.50
2018-12-15T20:18:17.655Z,22.60
2018-12-15T20:20:46.225Z,20.57
2018-12-15T20:23:14.777Z,17.12
2018-12-15T20:25:43.380Z,19.65
2018-12-15T20:28:12.018Z,15.72
2018-12-15T20:30:40.643Z,19.07
2018-12-15T20:33:11.166Z,21.03
2018-12-15T20:35:40.029Z,16.12
2018-12-15T20:38:09.081Z,17.57
2018-12-15T20:40:37.680Z,16.40
2018-12-15T20:43:13.884Z,15.43
2018-12-15T20:45:43.250Z,19.77
2018-12-15T20:48:11.874Z,15.08
2018-12-15T20:50:40.710Z,18.60
2018-12-15T20:53:09.358Z,15.15
2018-12-15T20:55:38.078Z,18.25
2018-12-15T20:58:06.693Z,18.55
2018-12-15T21:00:35.379Z,13.62
2018-12-15T21:03:04.150Z,17.23
2018-12-15T21:05:36.753Z,16.42
2018-12-15T21:08:09.828Z,16.80
2018-12-15T21:10:43.928Z,15.40
2018-12-15T21:13:14.801Z,17.00
2018-12-15T21:15:46.077Z,16.55
2018-12-15T21:18:14.750Z,18.80
2018-12-15T21:20:43.317Z,19.15
2018-12-15T21:23:11.933Z,16.55
2018-12-15T21:25:40.507Z,19.62
2018-12-15T21:28:09.311Z,24.60
2018-12-15T21:30:37.879Z,17.50
2018-12-15T21:33:06.486Z,18.73
2018-12-15T21:35:35.085Z,16.90
2018-12-15T21:38:03.694Z,22.37
2018-12-15T21:40:32.282Z,15.37
2018-12-15T21:43:01.265Z,16.97
2018-12-15T21:45:30.271Z,20.25
2018-12-15T21:47:58.903Z,15.10
2018-12-15T21:50:27.603Z,13.70
2018-12-15T21:52:56.217Z,15.28
2018-12-15T21:55:24.811Z,18.57
2018-12-15T21:57:53.442Z,17.40
2018-12-15T22:00:22.033Z,15.70
2018-12-15T22:02:50.999Z,16.95
2018-12-15T22:05:20.163Z,19.50
2018-12-15T22:07:48.780Z,15.25
2018-12-15T22:10:17.389Z,17.80
2018-12-15T22:12:45.970Z,17.20
2018-12-15T22:15:15.449Z,16.85
2018-12-15T22:17:44.038Z,16.10
2018-12-15T22:20:13.031Z,15.15
2018-12-15T22:22:41.709Z,14.25
2018-12-15T22:25:10.297Z,14.83
2018-12-15T22:27:38.863Z,14.80
2018-12-15T22:30:08.789Z,12.85
2018-12-15T22:32:37.675Z,13.20
2018-12-15T22:35:06.794Z,14.35
2018-12-15T22:37:36.369Z,14.80
2018-12-15T22:40:05.579Z,17.15
2018-12-15T22:42:34.496Z,18.40
2018-12-15T22:45:03.202Z,16.07
2018-12-15T22:47:32.857Z,15.63
2018-12-15T22:50:02.648Z,16.93
2018-12-15T22:52:31.347Z,13.98
2018-12-15T22:55:00.031Z,14.47
2018-12-15T22:57:28.756Z,14.40
2018-12-15T22:59:57.283Z,15.50
2018-12-15T23:02:25.963Z,14.83
2018-12-15T23:04:56.410Z,16.48
2018-12-15T23:07:26.185Z,19.35
2018-12-15T23:09:54.779Z,15.38
2018-12-15T23:12:23.401Z,16.25
2018-12-15T23:14:54.573Z,14.73
2018-12-15T23:17:23.633Z,15.53
2018-12-15T23:19:52.229Z,21.12
2018-12-15T23:22:20.899Z,16.00
2018-12-15T23:24:49.435Z,17.87
2018-12-15T23:27:18.056Z,17.03
2018-12-15T23:29:46.695Z,15.77
2018-12-15T23:32:16.043Z,17.48
2018-12-15T23:34:44.585Z,17.92
2018-12-15T23:37:13.157Z,17.40
2018-12-15T23:39:41.778Z,16.37
2018-12-15T23:42:10.313Z,20.23
2018-12-15T23:44:39.275Z,22.13
2018-12-15T23:47:08.211Z,19.05
2018-12-15T23:49:37.485Z,17.75
2018-12-15T23:52:06.447Z,17.63
2018-12-15T23:54:35.047Z,24.50
2018-12-15T23:57:03.630Z,21.82
2018-12-15T23:59:32.217Z,21.77
